createdAt,value
2023-10-05T00:01:13.132Z,101475.47
2023-10-05T00:03:59.867Z,101464.25
2023-10-05T00:06:47.856Z,101452.08
2023-10-05T00:09:34.182Z,101444.80
2023-10-05T00:12:24.343Z,101438.72
2023-10-05T00:15:13.099Z,101440.49
2023-10-05T00:18:00.049Z,101445.59
2023-10-05T00:20:49.601Z,101451.77
2023-10-05T00:23:36.834Z,101455.98
2023-10-05T00:26:29.986Z,101456.62
2023-10-05T00:29:25.580Z,101449.88
2023-10-05T00:32:16.908Z,101448.06
2023-10-05T00:35:12.825Z,101441.66
2023-10-05T00:38:17.555Z,101441.02
2023-10-05T00:41:09.496Z,101440.73
2023-10-05T00:43:56.820Z,101448.80
2023-10-05T00:46:50.285Z,101445.52
2023-10-05T00:49:49.947Z,101451.94
2023-10-05T00:52:36.765Z,101447.56
2023-10-05T00:55:24.223Z,101448.65
2023-10-05T00:58:15.902Z,101451.57
2023-10-05T01:01:07.064Z,101448.39
2023-10-05T01:03:57.142Z,101449.12
2023-10-05T01:06:50.609Z,101450.44
2023-10-05T01:10:02.931Z,101451.90
2023-10-05T01:12:52.608Z,101447.12
2023-10-05T01:15:39.694Z,101444.84
2023-10-05T01:18:27.468Z,101433.45
2023-10-05T01:21:13.652Z,101427.02
2023-10-05T01:24:00.278Z,101418.02
2023-10-05T01:26:47.357Z,101408.98
2023-10-05T01:29:35.315Z,101400.19
2023-10-05T01:32:22.188Z,101394.89
2023-10-05T01:35:16.283Z,101396.76
2023-10-05T01:38:03.565Z,101390.88
2023-10-05T01:40:52.619Z,101385.20
2023-10-05T01:43:43.764Z,101385.11
2023-10-05T01:46:34.088Z,101379.51
2023-10-05T01:49:21.245Z,101375.41
2023-10-05T01:52:08.960Z,101371.62
2023-10-05T01:54:55.535Z,101369.57
2023-10-05T01:57:43.854Z,101368.49
2023-10-05T02:00:32.626Z,101370.65
2023-10-05T02:03:20.500Z,101371.45
2023-10-05T02:06:12.526Z,101372.62
2023-10-05T02:08:59.215Z,101363.51
2023-10-05T02:11:45.969Z,101361.08
2023-10-05T02:14:32.167Z,101365.85
2023-10-05T02:17:20.532Z,101366.27
2023-10-05T02:20:09.513Z,101364.70
2023-10-05T02:22:56.082Z,101356.05
2023-10-05T02:25:43.602Z,101358.95
2023-10-05T02:28:35.192Z,101357.91
2023-10-05T02:31:23.324Z,101358.05
2023-10-05T02:34:11.325Z,101356.17
2023-10-05T02:36:58.002Z,101347.30
2023-10-05T02:39:44.698Z,101347.32
2023-10-05T02:42:31.283Z,101346.42
2023-10-05T02:45:18.653Z,101342.48
2023-10-05T02:48:11.224Z,101338.06
2023-10-05T02:50:58.608Z,101336.41
2023-10-05T02:53:47.676Z,101324.14
2023-10-05T02:56:34.756Z,101322.45
2023-10-05T02:59:25.525Z,101321.35
2023-10-05T03:02:15.888Z,101320.30
2023-10-05T03:05:06.476Z,101318.02
2023-10-05T03:07:54.733Z,101312.83
2023-10-05T03:10:45.239Z,101315.13
2023-10-05T03:13:32.473Z,101304.70
2023-10-05T03:16:22.888Z,101297.57
2023-10-05T03:19:15.879Z,101292.68
2023-10-05T03:22:07.100Z,101290.61
2023-10-05T03:24:55.587Z,101284.31
2023-10-05T03:27:42.989Z,101281.71
2023-10-05T03:30:32.159Z,101282.46
2023-10-05T03:33:19.165Z,101279.04
2023-10-05T03:36:15.113Z,101276.96
2023-10-05T03:39:07.687Z,101270.94
2023-10-05T03:41:54.346Z,101272.33
2023-10-05T03:44:41.452Z,101274.72
2023-10-05T03:47:29.822Z,101274.99
2023-10-05T03:50:22.737Z,101264.41
2023-10-05T03:53:17.040Z,101276.26
2023-10-05T03:56:04.006Z,101277.82
2023-10-05T03:58:53.680Z,101277.30
2023-10-05T04:01:40.319Z,101271.70
2023-10-05T04:04:29.657Z,101270.11
2023-10-05T04:07:17.235Z,101268.88
2023-10-05T04:10:05.021Z,101257.13
2023-10-05T04:12:56.324Z,101258.98
2023-10-05T04:15:43.055Z,101242.97
2023-10-05T04:18:30.975Z,101249.77
2023-10-05T04:21:20.604Z,101241.79
2023-10-05T04:24:07.671Z,101232.89
2023-10-05T04:26:55.329Z,101231.33
2023-10-05T04:29:41.818Z,101223.42
2023-10-05T04:32:28.228Z,101223.52
2023-10-05T04:35:24.223Z,101223.67
2023-10-05T04:38:12.275Z,101215.92
2023-10-05T04:40:59.810Z,101214.68
2023-10-05T04:43:49.225Z,101211.95
2023-10-05T04:46:36.160Z,101199.23
2023-10-05T04:49:25.741Z,101201.33
2023-10-05T04:52:20.590Z,101199.23
2023-10-05T04:55:32.317Z,101198.61
2023-10-05T04:58:32.184Z,101198.86
2023-10-05T05:01:30.949Z,101198.16
2023-10-05T05:04:36.874Z,101194.11
2023-10-05T05:07:23.513Z,101187.34
2023-10-05T05:10:12.948Z,101189.10
2023-10-05T05:13:00.352Z,101187.96
2023-10-05T05:15:47.456Z,101179.54
2023-10-05T05:18:38.999Z,101163.36
2023-10-05T05:21:25.870Z,101177.18
2023-10-05T05:24:14.927Z,101172.27
2023-10-05T05:27:04.731Z,101165.56
2023-10-05T05:29:54.469Z,101162.24
2023-10-05T05:32:43.642Z,101164.75
2023-10-05T05:35:30.368Z,101170.89
2023-10-05T05:38:17.205Z,101169.39
2023-10-05T05:41:11.044Z,101166.26
2023-10-05T05:43:57.704Z,101164.31
2023-10-05T05:46:45.724Z,101168.79
2023-10-05T05:49:32.374Z,101167.54
2023-10-05T05:52:20.151Z,101170.44
2023-10-05T05:55:11.940Z,101162.16
2023-10-05T05:58:00.873Z,101154.42
2023-10-05T06:00:47.762Z,101152.46
2023-10-05T06:03:35.100Z,101153.70
2023-10-05T06:06:22.134Z,101154.95
2023-10-05T06:09:08.774Z,101151.35
2023-10-05T06:11:55.602Z,101152.37
2023-10-05T06:14:43.214Z,101146.61
2023-10-05T06:17:31.080Z,101146.33
2023-10-05T06:20:19.114Z,101144.86
2023-10-05T06:23:07.291Z,101140.13
2023-10-05T06:25:54.781Z,101136.20
2023-10-05T06:28:41.451Z,101134.90
2023-10-05T06:31:28.877Z,101120.42
2023-10-05T06:34:15.502Z,101105.31
2023-10-05T06:37:03.331Z,101116.13
2023-10-05T06:39:49.890Z,101120.59
2023-10-05T06:42:36.561Z,101117.96
2023-10-05T06:45:24.935Z,101123.68
2023-10-05T06:48:11.504Z,101117.86
2023-10-05T06:50:59.471Z,101123.42
2023-10-05T06:53:46.187Z,101132.24
2023-10-05T06:56:32.686Z,101129.57
2023-10-05T06:59:22.548Z,101129.27
2023-10-05T07:02:14.482Z,101121.48
2023-10-05T07:05:02.667Z,101118.27
2023-10-05T07:07:49.036Z,101110.82
2023-10-05T07:10:35.393Z,101100.81
2023-10-05T07:13:24.203Z,101112.48
2023-10-05T07:16:11.140Z,101110.74
2023-10-05T07:18:58.548Z,101109.30
2023-10-05T07:21:45.898Z,101103.91
2023-10-05T07:24:32.865Z,101109.89
2023-10-05T07:27:20.004Z,101099.16
2023-10-05T07:30:09.953Z,101113.38
2023-10-05T07:33:05.157Z,101116.80
2023-10-05T07:36:00.607Z,101115.48
2023-10-05T07:38:47.078Z,101113.27
2023-10-05T07:41:34.014Z,101106.18
2023-10-05T07:44:20.619Z,101108.21
2023-10-05T07:47:08.015Z,101113.04
2023-10-05T07:49:55.168Z,101107.86
2023-10-05T07:52:45.296Z,101108.65
2023-10-05T07:55:32.514Z,101113.95
2023-10-05T07:58:20.531Z,101104.99
2023-10-05T08:01:07.271Z,101105.55
2023-10-05T08:03:54.585Z,101105.53
2023-10-05T08:06:45.199Z,101106.14
2023-10-05T08:09:31.466Z,101093.79
2023-10-05T08:12:17.991Z,101101.75
2023-10-05T08:15:06.583Z,101104.15
2023-10-05T08:17:52.954Z,101098.09
2023-10-05T08:20:39.628Z,101101.86
2023-10-05T08:23:26.946Z,101101.16
2023-10-05T08:26:14.198Z,101097.95
2023-10-05T08:29:01.028Z,101092.57
2023-10-05T08:31:47.987Z,101092.13
2023-10-05T08:34:34.565Z,101082.95
2023-10-05T08:37:23.394Z,101083.38
2023-10-05T08:40:40.013Z,101086.95
2023-10-05T08:43:26.416Z,101081.45
2023-10-05T08:46:13.440Z,101084.10
2023-10-05T08:49:08.840Z,101095.89
2023-10-05T08:52:04.627Z,101090.89
2023-10-05T08:54:52.414Z,101095.35
2023-10-05T08:57:39.041Z,101096.38
2023-10-05T09:00:39.689Z,101098.09
2023-10-05T09:03:31.215Z,101100.84
2023-10-05T09:06:21.928Z,101101.88
2023-10-05T09:09:10.921Z,101107.46
2023-10-05T09:11:57.743Z,101103.03
2023-10-05T09:14:45.133Z,101105.27
2023-10-05T09:17:34.936Z,101113.35
2023-10-05T09:20:23.065Z,101119.16
2023-10-05T09:23:15.008Z,101113.70
2023-10-05T09:26:02.448Z,101112.82
2023-10-05T09:28:53.293Z,101108.34
2023-10-05T09:34:35.482Z,101108.75
2023-10-05T09:37:25.903Z,101109.17
2023-10-05T09:40:18.266Z,101110.55
2023-10-05T09:43:07.169Z,101112.80
2023-10-05T09:45:53.931Z,101113.15
2023-10-05T09:48:41.495Z,101116.13
2023-10-05T09:51:28.926Z,101110.41
2023-10-05T09:54:18.221Z,101111.48
2023-10-05T09:57:11.724Z,101112.27
2023-10-05T10:00:01.211Z,101121.27
2023-10-05T10:02:47.835Z,101117.29
2023-10-05T10:05:42.974Z,101122.60
2023-10-05T10:08:32.531Z,101123.48
2023-10-05T10:11:20.851Z,101114.71
2023-10-05T10:14:11.346Z,101110.70
2023-10-05T10:17:01.841Z,101119.86
2023-10-05T10:19:56.531Z,101126.55
2023-10-05T10:22:51.793Z,101122.35
2023-10-05T10:25:42.084Z,101126.66
2023-10-05T10:28:52.255Z,101121.71
2023-10-05T10:31:50.115Z,101124.78
2023-10-05T10:34:51.017Z,101116.32
2023-10-05T10:37:46.121Z,101118.77
2023-10-05T10:40:33.988Z,101120.02
2023-10-05T10:43:33.410Z,101121.33
2023-10-05T10:46:35.213Z,101124.20
2023-10-05T10:49:22.490Z,101123.40
2023-10-05T10:52:23.400Z,101122.59
2023-10-05T10:55:24.217Z,101126.92
2023-10-05T10:58:15.072Z,101124.88
2023-10-05T11:01:05.821Z,101130.95
2023-10-05T11:04:02.203Z,101130.13
2023-10-05T11:06:49.405Z,101137.35
2023-10-05T11:09:38.984Z,101141.97
2023-10-05T11:12:25.715Z,101145.74
2023-10-05T11:15:12.645Z,101138.17
2023-10-05T11:18:00.806Z,101147.35
2023-10-05T11:20:53.602Z,101135.11
2023-10-05T11:23:47.013Z,101140.13
2023-10-05T11:26:44.521Z,101141.53
2023-10-05T11:29:47.167Z,101136.99
2023-10-05T11:33:00.832Z,101145.36
2023-10-05T11:35:53.503Z,101142.91
2023-10-05T11:38:40.380Z,101144.10
2023-10-05T11:41:31.121Z,101144.73
2023-10-05T11:44:25.275Z,101140.59
2023-10-05T11:47:47.414Z,101137.21
2023-10-05T11:50:34.459Z,101139.52
2023-10-05T11:53:22.970Z,101139.26
2023-10-05T11:56:10.969Z,101136.45
2023-10-05T11:59:01.506Z,101133.71
2023-10-05T12:01:48.875Z,101140.41
2023-10-05T12:04:40.958Z,101145.08
2023-10-05T12:07:27.925Z,101153.36
2023-10-05T12:10:14.813Z,101147.46
2023-10-05T12:13:03.676Z,101151.21
2023-10-05T12:15:52.830Z,101150.02
2023-10-05T12:18:43.301Z,101154.70
2023-10-05T12:21:30.101Z,101151.39
2023-10-05T12:24:36.814Z,101146.92
2023-10-05T12:27:23.587Z,101151.31
2023-10-05T12:30:13.737Z,101149.13
2023-10-05T12:33:02.773Z,101138.81
2023-10-05T12:35:53.899Z,101144.25
2023-10-05T12:38:40.760Z,101142.86
2023-10-05T12:41:37.796Z,101139.33
2023-10-05T12:44:25.040Z,101140.62
2023-10-05T12:47:11.911Z,101147.30
2023-10-05T12:49:58.291Z,101145.35
2023-10-05T12:52:44.905Z,101136.98
2023-10-05T12:55:31.673Z,101141.63
2023-10-05T12:58:18.332Z,101144.98
2023-10-05T13:01:14.248Z,101148.09
2023-10-05T13:04:02.517Z,101144.90
2023-10-05T13:06:49.247Z,101154.04
2023-10-05T13:09:36.225Z,101141.27
2023-10-05T13:12:22.788Z,101140.38
2023-10-05T13:15:10.314Z,101139.09
2023-10-05T13:17:57.413Z,101135.33
2023-10-05T13:20:45.360Z,101139.42
2023-10-05T13:23:32.289Z,101142.12
2023-10-05T13:26:19.493Z,101141.46
2023-10-05T13:29:09.230Z,101139.75
2023-10-05T13:31:57.415Z,101140.82
2023-10-05T13:34:47.349Z,101143.20
2023-10-05T13:37:35.610Z,101141.34
2023-10-05T13:40:29.558Z,101142.92
2023-10-05T13:43:15.958Z,101142.38
2023-10-05T13:46:23.376Z,101140.61
2023-10-05T13:49:10.443Z,101133.89
2023-10-05T13:52:00.068Z,101139.50
2023-10-05T13:54:47.803Z,101143.96
2023-10-05T13:57:34.401Z,101140.75
2023-10-05T14:00:21.069Z,101147.29
2023-10-05T14:03:07.720Z,101148.14
2023-10-05T14:06:02.818Z,101139.94
2023-10-05T14:08:49.503Z,101140.29
2023-10-05T14:11:39.317Z,101144.24
2023-10-05T14:14:26.488Z,101141.80
2023-10-05T14:17:13.209Z,101135.04
2023-10-05T14:19:59.890Z,101146.14
2023-10-05T14:22:47.182Z,101145.09
2023-10-05T14:25:34.103Z,101143.54
2023-10-05T14:28:25.103Z,101140.92
2023-10-05T14:31:12.388Z,101133.06
2023-10-05T14:34:01.480Z,101131.39
2023-10-05T14:36:50.169Z,101137.10
2023-10-05T14:39:38.483Z,101137.33
2023-10-05T14:42:25.956Z,101141.33
2023-10-05T14:45:15.778Z,101152.73
2023-10-05T14:48:08.877Z,101149.92
2023-10-05T14:50:56.656Z,101154.61
2023-10-05T14:53:44.409Z,101150.16
2023-10-05T14:56:30.970Z,101148.58
2023-10-05T14:59:17.961Z,101153.92
2023-10-05T15:02:04.317Z,101157.08
2023-10-05T15:04:50.650Z,101160.63
2023-10-05T15:07:48.404Z,101155.27
2023-10-05T15:10:35.407Z,101164.64
2023-10-05T15:13:22.438Z,101172.20
2023-10-05T15:16:10.419Z,101168.48
2023-10-05T15:18:57.261Z,101174.64
2023-10-05T15:21:43.754Z,101174.91
2023-10-05T15:24:32.268Z,101191.68
2023-10-05T15:27:19.102Z,101182.61
2023-10-05T15:30:11.105Z,101202.55
2023-10-05T15:32:57.358Z,101200.81
2023-10-05T15:35:44.405Z,101206.36
2023-10-05T15:38:31.112Z,101211.66
2023-10-05T15:41:19.872Z,101211.23
2023-10-05T15:44:09.467Z,101219.09
2023-10-05T15:46:56.737Z,101220.91
2023-10-05T15:49:43.429Z,101221.81
2023-10-05T15:52:29.980Z,101230.09
2023-10-05T15:55:18.268Z,101237.30
2023-10-05T15:58:08.525Z,101241.38
2023-10-05T16:00:57.085Z,101243.10
2023-10-05T16:03:43.427Z,101251.72
2023-10-05T16:06:30.498Z,101249.91
2023-10-05T16:09:17.189Z,101252.36
2023-10-05T16:12:06.172Z,101256.14
2023-10-05T16:14:54.572Z,101263.51
2023-10-05T16:17:49.373Z,101261.51
2023-10-05T16:20:38.916Z,101275.45
2023-10-05T16:23:25.960Z,101275.10
2023-10-05T16:26:13.206Z,101275.96
2023-10-05T16:29:00.192Z,101280.14
2023-10-05T16:34:37.856Z,101283.33
2023-10-05T16:37:24.528Z,101280.63
2023-10-05T16:40:13.710Z,101295.88
2023-10-05T16:43:01.820Z,101296.23
2023-10-05T16:45:48.784Z,101300.55
2023-10-05T16:48:36.972Z,101306.02
2023-10-05T16:51:23.432Z,101306.81
2023-10-05T16:54:11.105Z,101307.19
2023-10-05T16:56:58.277Z,101311.65
2023-10-05T16:59:45.256Z,101310.34
2023-10-05T17:02:32.016Z,101312.25
2023-10-05T17:05:20.893Z,101317.13
2023-10-05T17:08:07.818Z,101321.95
2023-10-05T17:10:54.140Z,101329.34
2023-10-05T17:13:41.154Z,101328.98
2023-10-05T17:16:30.717Z,101331.06
2023-10-05T17:19:17.153Z,101334.66
2023-10-05T17:22:03.750Z,101337.70
2023-10-05T17:24:54.986Z,101340.63
2023-10-05T17:27:42.075Z,101335.03
2023-10-05T17:30:28.474Z,101347.45
2023-10-05T17:33:15.079Z,101350.92
2023-10-05T17:36:01.892Z,101354.54
2023-10-05T17:38:49.471Z,101347.31
2023-10-05T17:41:36.312Z,101358.73
2023-10-05T17:44:23.271Z,101360.17
2023-10-05T17:47:10.962Z,101358.11
2023-10-05T17:49:58.012Z,101359.31
2023-10-05T17:52:46.556Z,101359.24
2023-10-05T17:55:36.534Z,101369.96
2023-10-05T17:58:27.491Z,101370.41
2023-10-05T18:01:18.758Z,101373.40
2023-10-05T18:04:06.908Z,101367.52
2023-10-05T18:06:53.324Z,101371.55
2023-10-05T18:09:40.071Z,101375.15
2023-10-05T18:12:26.757Z,101380.16
2023-10-05T18:15:15.547Z,101387.84
2023-10-05T18:18:03.433Z,101390.95
2023-10-05T18:20:50.736Z,101394.57
2023-10-05T18:23:39.153Z,101400.27
2023-10-05T18:26:26.505Z,101402.75
2023-10-05T18:29:14.161Z,101411.10
2023-10-05T18:32:03.221Z,101411.36
2023-10-05T18:34:50.447Z,101411.15
2023-10-05T18:37:38.464Z,101411.06
2023-10-05T18:40:25.628Z,101418.21
2023-10-05T18:43:14.405Z,101408.77
2023-10-05T18:46:01.889Z,101418.00
2023-10-05T18:48:48.781Z,101426.75
2023-10-05T18:51:37.938Z,101429.56
2023-10-05T18:54:25.078Z,101428.30
2023-10-05T18:57:13.549Z,101439.79
2023-10-05T19:00:03.086Z,101442.71
2023-10-05T19:02:50.741Z,101444.85
2023-10-05T19:05:38.083Z,101441.79
2023-10-05T19:08:24.734Z,101450.72
2023-10-05T19:11:11.997Z,101449.00
2023-10-05T19:13:58.828Z,101450.83
2023-10-05T19:16:45.818Z,101452.01
2023-10-05T19:19:32.942Z,101451.02
2023-10-05T19:22:20.560Z,101457.85
2023-10-05T19:25:07.943Z,101457.18
2023-10-05T19:27:54.970Z,101461.05
2023-10-05T19:30:42.153Z,101464.21
2023-10-05T19:33:29.103Z,101454.73
2023-10-05T19:36:16.396Z,101477.70
2023-10-05T19:39:05.053Z,101483.36
2023-10-05T19:41:55.254Z,101489.23
2023-10-05T19:44:42.352Z,101488.27
2023-10-05T19:47:30.072Z,101497.05
2023-10-05T19:50:17.059Z,101501.46
2023-10-05T19:53:03.989Z,101507.73
2023-10-05T19:55:57.992Z,101512.65
2023-10-05T19:58:44.767Z,101517.39
2023-10-05T20:01:31.326Z,101518.38
2023-10-05T20:04:18.027Z,101521.63
2023-10-05T20:07:08.729Z,101522.90
2023-10-05T20:09:57.795Z,101524.09
2023-10-05T20:12:44.520Z,101528.19
2023-10-05T20:15:31.357Z,101535.56
2023-10-05T20:18:18.175Z,101527.18
2023-10-05T20:21:13.265Z,101533.39
2023-10-05T20:24:00.182Z,101533.88
2023-10-05T20:26:46.705Z,101536.15
2023-10-05T20:29:33.092Z,101527.21
2023-10-05T20:32:19.671Z,101536.96
2023-10-05T20:35:07.526Z,101543.14
2023-10-05T20:37:54.118Z,101548.15
2023-10-05T20:40:40.896Z,101548.33
2023-10-05T20:43:28.246Z,101549.81
2023-10-05T20:46:15.145Z,101550.55
2023-10-05T20:49:01.691Z,101554.59
2023-10-05T20:51:48.184Z,101552.91
2023-10-05T20:54:35.115Z,101564.84
2023-10-05T20:57:21.789Z,101562.21
2023-10-05T21:00:10.004Z,101563.58
2023-10-05T21:02:56.615Z,101570.02
2023-10-05T21:05:43.388Z,101570.86
2023-10-05T21:08:30.325Z,101576.90
2023-10-05T21:11:16.596Z,101579.70
2023-10-05T21:14:03.192Z,101583.22
2023-10-05T21:16:53.142Z,101588.19
2023-10-05T21:19:40.555Z,101589.20
2023-10-05T21:22:27.067Z,101587.89
2023-10-05T21:25:14.837Z,101589.56
2023-10-05T21:28:01.425Z,101590.66
2023-10-05T21:30:48.429Z,101593.77
2023-10-05T21:33:35.192Z,101593.31
2023-10-05T21:36:22.165Z,101595.87
2023-10-05T21:39:08.992Z,101593.34
2023-10-05T21:41:55.871Z,101598.77
2023-10-05T21:44:42.485Z,101596.13
2023-10-05T21:47:29.179Z,101594.46
2023-10-05T21:50:15.774Z,101595.84
2023-10-05T21:53:05.472Z,101591.57
2023-10-05T21:55:52.300Z,101588.64
2023-10-05T21:58:39.147Z,101584.83
2023-10-05T22:01:25.870Z,101590.52
2023-10-05T22:04:12.682Z,101592.38
2023-10-05T22:06:59.368Z,101594.23
2023-10-05T22:09:46.244Z,101594.85
2023-10-05T22:12:36.001Z,101589.61
2023-10-05T22:15:22.790Z,101599.56
2023-10-05T22:18:11.660Z,101605.02
2023-10-05T22:20:59.159Z,101605.75
2023-10-05T22:23:45.734Z,101605.49
2023-10-05T22:26:32.358Z,101609.66
2023-10-05T22:29:19.230Z,101605.58
2023-10-05T22:32:05.939Z,101612.11
2023-10-05T22:34:52.777Z,101613.69
2023-10-05T22:37:40.045Z,101617.31
2023-10-05T22:40:26.236Z,101623.46
2023-10-05T22:43:12.867Z,101624.90
2023-10-05T22:45:59.277Z,101625.48
2023-10-05T22:48:45.767Z,101623.96
2023-10-05T22:51:32.115Z,101629.74
2023-10-05T22:54:18.659Z,101631.83
2023-10-05T22:57:05.336Z,101636.03
2023-10-05T22:59:52.662Z,101638.84
2023-10-05T23:02:39.833Z,101641.39
2023-10-05T23:05:27.124Z,101650.59
2023-10-05T23:08:13.619Z,101651.15
2023-10-05T23:11:01.083Z,101642.79
2023-10-05T23:13:50.334Z,101651.61
2023-10-05T23:16:37.259Z,101653.84
2023-10-05T23:19:23.625Z,101663.42
2023-10-05T23:22:12.001Z,101670.10
2023-10-05T23:24:59.025Z,101670.35
2023-10-05T23:27:47.667Z,101671.46
2023-10-05T23:30:34.332Z,101673.18
2023-10-05T23:33:26.956Z,101668.01
2023-10-05T23:36:16.751Z,101671.63
2023-10-05T23:39:09.907Z,101680.60
2023-10-05T23:41:57.854Z,101678.73
2023-10-05T23:44:47.808Z,101694.02
2023-10-05T23:47:37.614Z,101696.04
2023-10-05T23:50:30.904Z,101700.30
2023-10-05T23:53:17.361Z,101702.50
2023-10-05T23:56:10.406Z,101705.36
2023-10-05T23:58:57.271Z,101707.53
